sensor_id;sensor_type;location;lat;lon;timestamp;temperature;humidity
26621;DHT22;14253;44.840;10.444;2023-06-14T00:02:10;18.50;1.00
26621;DHT22;14253;44.840;10.444;2023-06-14T00:04:36;18.50;1.00
26621;DHT22;14253;44.840;10.444;2023-06-14T00:07:03;18.50;1.00
26621;DHT22;14253;44.840;10.444;2023-06-14T00:09:29;18.40;1.00
26621;DHT22;14253;44.840;10.444;2023-06-14T00:11:55;18.40;1.00
26621;DHT22;14253;44.840;10.444;2023-06-14T00:14:21;18.40;1.00
26621;DHT22;14253;44.840;10.444;2023-06-14T00:16:47;18.30;1.00
26621;DHT22;14253;44.840;10.444;2023-06-14T00:19:13;18.40;1.00
26621;DHT22;14253;44.840;10.444;2023-06-14T00:21:40;18.30;1.00
26621;DHT22;14253;44.840;10.444;2023-06-14T00:24:06;18.30;1.00
26621;DHT22;14253;44.840;10.444;2023-06-14T00:26:33;18.30;1.00
26621;DHT22;14253;44.840;10.444;2023-06-14T00:28:59;18.20;1.00
26621;DHT22;14253;44.840;10.444;2023-06-14T00:31:26;18.30;1.00
26621;DHT22;14253;44.840;10.444;2023-06-14T00:33:53;18.30;1.00
26621;DHT22;14253;44.840;10.444;2023-06-14T00:36:19;18.30;1.00
26621;DHT22;14253;44.840;10.444;2023-06-14T00:38:45;18.30;1.00
26621;DHT22;14253;44.840;10.444;2023-06-14T00:41:11;18.30;1.00
26621;DHT22;14253;44.840;10.444;2023-06-14T00:43:37;18.30;1.00
26621;DHT22;14253;44.840;10.444;2023-06-14T00:46:03;18.30;1.00
26621;DHT22;14253;44.840;10.444;2023-06-14T00:48:30;18.30;1.00
26621;DHT22;14253;44.840;10.444;2023-06-14T00:50:57;18.30;1.00
26621;DHT22;14253;44.840;10.444;2023-06-14T00:53:23;18.30;1.00
26621;DHT22;14253;44.840;10.444;2023-06-14T00:55:50;18.30;1.00
26621;DHT22;14253;44.840;10.444;2023-06-14T00:58:17;18.30;1.00
26621;DHT22;14253;44.840;10.444;2023-06-14T01:00:43;18.30;1.00
26621;DHT22;14253;44.840;10.444;2023-06-14T01:03:10;18.30;1.00
26621;DHT22;14253;44.840;10.444;2023-06-14T01:05:38;18.30;1.00
26621;DHT22;14253;44.840;10.444;2023-06-14T01:15:50;18.30;1.00
26621;DHT22;14253;44.840;10.444;2023-06-14T01:18:17;18.30;1.00
26621;DHT22;14253;44.840;10.444;2023-06-14T01:20:45;18.30;1.00
26621;DHT22;14253;44.840;10.444;2023-06-14T01:23:19;18.30;1.00
26621;DHT22;14253;44.840;10.444;2023-06-14T01:25:45;18.30;1.00
26621;DHT22;14253;44.840;10.444;2023-06-14T01:28:13;18.40;1.00
26621;DHT22;14253;44.840;10.444;2023-06-14T01:30:44;18.50;1.00
26621;DHT22;14253;44.840;10.444;2023-06-14T01:33:26;18.50;1.00
26621;DHT22;14253;44.840;10.444;2023-06-14T01:35:53;18.50;1.00
26621;DHT22;14253;44.840;10.444;2023-06-14T01:38:28;18.50;1.00
26621;DHT22;14253;44.840;10.444;2023-06-14T01:40:58;18.50;1.00
26621;DHT22;14253;44.840;10.444;2023-06-14T01:43:25;18.50;1.00
26621;DHT22;14253;44.840;10.444;2023-06-14T01:45:53;18.50;1.00
26621;DHT22;14253;44.840;10.444;2023-06-14T01:48:20;18.50;1.00
26621;DHT22;14253;44.840;10.444;2023-06-14T01:50:49;18.50;1.00
26621;DHT22;14253;44.840;10.444;2023-06-14T01:53:15;18.50;1.00
26621;DHT22;14253;44.840;10.444;2023-06-14T01:55:41;18.50;1.00
26621;DHT22;14253;44.840;10.444;2023-06-14T01:58:10;18.50;1.00
26621;DHT22;14253;44.840;10.444;2023-06-14T02:00:36;18.50;1.00
26621;DHT22;14253;44.840;10.444;2023-06-14T02:03:02;18.50;1.00
26621;DHT22;14253;44.840;10.444;2023-06-14T02:05:31;18.50;1.00
26621;DHT22;14253;44.840;10.444;2023-06-14T02:07:57;18.40;1.00
26621;DHT22;14253;44.840;10.444;2023-06-14T02:10:23;18.30;1.00
26621;DHT22;14253;44.840;10.444;2023-06-14T02:12:49;18.30;1.00
26621;DHT22;14253;44.840;10.444;2023-06-14T02:15:15;18.40;1.00
26621;DHT22;14253;44.840;10.444;2023-06-14T02:17:48;18.30;1.00
26621;DHT22;14253;44.840;10.444;2023-06-14T02:20:17;18.30;1.00
26621;DHT22;14253;44.840;10.444;2023-06-14T02:22:44;18.30;1.00
26621;DHT22;14253;44.840;10.444;2023-06-14T02:25:11;18.30;1.00
26621;DHT22;14253;44.840;10.444;2023-06-14T02:27:39;18.30;1.00
26621;DHT22;14253;44.840;10.444;2023-06-14T02:30:06;18.30;1.00
26621;DHT22;14253;44.840;10.444;2023-06-14T02:32:33;18.30;1.00
26621;DHT22;14253;44.840;10.444;2023-06-14T02:35:02;18.30;1.00
26621;DHT22;14253;44.840;10.444;2023-06-14T02:37:28;18.20;1.00
26621;DHT22;14253;44.840;10.444;2023-06-14T02:39:55;18.20;1.00
26621;DHT22;14253;44.840;10.444;2023-06-14T02:42:21;18.10;1.00
26621;DHT22;14253;44.840;10.444;2023-06-14T02:44:47;18.10;1.00
26621;DHT22;14253;44.840;10.444;2023-06-14T02:47:17;18.10;1.00
26621;DHT22;14253;44.840;10.444;2023-06-14T02:49:44;18.10;1.00
26621;DHT22;14253;44.840;10.444;2023-06-14T02:52:14;18.10;1.00
26621;DHT22;14253;44.840;10.444;2023-06-14T02:54:40;18.10;1.00
26621;DHT22;14253;44.840;10.444;2023-06-14T02:57:06;18.00;1.00
26621;DHT22;14253;44.840;10.444;2023-06-14T02:59:37;17.90;1.00
26621;DHT22;14253;44.840;10.444;2023-06-14T03:02:04;17.90;1.00
26621;DHT22;14253;44.840;10.444;2023-06-14T03:04:32;17.80;1.00
26621;DHT22;14253;44.840;10.444;2023-06-14T03:07:04;17.80;1.00
26621;DHT22;14253;44.840;10.444;2023-06-14T03:09:36;17.70;1.00
26621;DHT22;14253;44.840;10.444;2023-06-14T03:12:06;17.70;1.00
26621;DHT22;14253;44.840;10.444;2023-06-14T03:14:34;17.70;1.00
26621;DHT22;14253;44.840;10.444;2023-06-14T03:17:00;17.60;1.00
26621;DHT22;14253;44.840;10.444;2023-06-14T03:19:28;17.70;1.00
26621;DHT22;14253;44.840;10.444;2023-06-14T03:21:55;17.70;1.00
26621;DHT22;14253;44.840;10.444;2023-06-14T03:24:24;17.80;1.00
26621;DHT22;14253;44.840;10.444;2023-06-14T03:26:55;17.80;1.00
26621;DHT22;14253;44.840;10.444;2023-06-14T03:29:23;17.90;1.00
26621;DHT22;14253;44.840;10.444;2023-06-14T03:32:00;17.90;1.00
26621;DHT22;14253;44.840;10.444;2023-06-14T03:34:33;17.90;1.00
26621;DHT22;14253;44.840;10.444;2023-06-14T03:37:01;17.80;1.00
26621;DHT22;14253;44.840;10.444;2023-06-14T03:39:28;17.80;1.00
26621;DHT22;14253;44.840;10.444;2023-06-14T03:41:55;17.70;1.00
26621;DHT22;14253;44.840;10.444;2023-06-14T03:44:21;17.80;1.00
26621;DHT22;14253;44.840;10.444;2023-06-14T03:46:47;17.90;1.00
26621;DHT22;14253;44.840;10.444;2023-06-14T03:49:14;17.90;1.00
26621;DHT22;14253;44.840;10.444;2023-06-14T03:51:43;17.90;1.00
26621;DHT22;14253;44.840;10.444;2023-06-14T03:54:09;17.90;1.00
26621;DHT22;14253;44.840;10.444;2023-06-14T03:56:36;17.90;1.00
26621;DHT22;14253;44.840;10.444;2023-06-14T03:59:03;17.90;1.00
26621;DHT22;14253;44.840;10.444;2023-06-14T04:01:30;17.90;1.00
26621;DHT22;14253;44.840;10.444;2023-06-14T04:03:59;17.90;1.00
26621;DHT22;14253;44.840;10.444;2023-06-14T04:06:25;17.90;1.00
26621;DHT22;14253;44.840;10.444;2023-06-14T04:08:59;17.90;1.00
26621;DHT22;14253;44.840;10.444;2023-06-14T04:11:29;17.90;1.00
26621;DHT22;14253;44.840;10.444;2023-06-14T04:13:55;17.80;1.00
26621;DHT22;14253;44.840;10.444;2023-06-14T04:16:22;17.80;1.00
26621;DHT22;14253;44.840;10.444;2023-06-14T04:18:48;17.70;1.00
26621;DHT22;14253;44.840;10.444;2023-06-14T04:21:18;17.80;1.00
26621;DHT22;14253;44.840;10.444;2023-06-14T04:23:45;17.90;1.00
26621;DHT22;14253;44.840;10.444;2023-06-14T04:26:13;17.90;1.00
26621;DHT22;14253;44.840;10.444;2023-06-14T04:28:40;18.00;1.00
26621;DHT22;14253;44.840;10.444;2023-06-14T04:31:07;18.00;1.00
26621;DHT22;14253;44.840;10.444;2023-06-14T04:33:35;17.90;1.00
26621;DHT22;14253;44.840;10.444;2023-06-14T04:36:12;17.90;1.00
26621;DHT22;14253;44.840;10.444;2023-06-14T04:38:40;17.80;1.00
26621;DHT22;14253;44.840;10.444;2023-06-14T04:41:07;17.90;1.00
26621;DHT22;14253;44.840;10.444;2023-06-14T04:43:38;18.00;1.00
26621;DHT22;14253;44.840;10.444;2023-06-14T04:46:06;18.10;1.00
26621;DHT22;14253;44.840;10.444;2023-06-14T04:48:37;18.20;1.00
26621;DHT22;14253;44.840;10.444;2023-06-14T04:51:09;18.40;1.00
26621;DHT22;14253;44.840;10.444;2023-06-14T04:53:35;18.50;1.00
26621;DHT22;14253;44.840;10.444;2023-06-14T04:56:02;18.60;1.00
26621;DHT22;14253;44.840;10.444;2023-06-14T04:58:30;18.70;1.00
26621;DHT22;14253;44.840;10.444;2023-06-14T05:00:58;18.80;1.00
26621;DHT22;14253;44.840;10.444;2023-06-14T05:03:25;18.80;1.00
26621;DHT22;14253;44.840;10.444;2023-06-14T05:05:52;18.80;1.00
26621;DHT22;14253;44.840;10.444;2023-06-14T05:08:20;18.90;1.00
26621;DHT22;14253;44.840;10.444;2023-06-14T05:10:50;18.90;1.00
26621;DHT22;14253;44.840;10.444;2023-06-14T05:13:16;19.00;1.00
26621;DHT22;14253;44.840;10.444;2023-06-14T05:15:45;18.90;1.00
26621;DHT22;14253;44.840;10.444;2023-06-14T05:18:11;18.80;1.00
26621;DHT22;14253;44.840;10.444;2023-06-14T05:20:39;18.90;1.00
26621;DHT22;14253;44.840;10.444;2023-06-14T05:23:09;19.00;1.00
26621;DHT22;14253;44.840;10.444;2023-06-14T05:25:45;19.10;1.00
26621;DHT22;14253;44.840;10.444;2023-06-14T05:28:11;19.20;1.00
26621;DHT22;14253;44.840;10.444;2023-06-14T05:30:40;19.20;1.00
26621;DHT22;14253;44.840;10.444;2023-06-14T05:33:06;19.30;1.00
26621;DHT22;14253;44.840;10.444;2023-06-14T05:35:33;19.40;1.00
26621;DHT22;14253;44.840;10.444;2023-06-14T05:37:59;19.40;1.00
26621;DHT22;14253;44.840;10.444;2023-06-14T05:40:25;19.40;1.00
26621;DHT22;14253;44.840;10.444;2023-06-14T05:42:51;19.50;1.00
26621;DHT22;14253;44.840;10.444;2023-06-14T05:45:17;19.60;1.00
26621;DHT22;14253;44.840;10.444;2023-06-14T05:47:43;19.60;1.00
26621;DHT22;14253;44.840;10.444;2023-06-14T05:50:09;19.70;99.90
26621;DHT22;14253;44.840;10.444;2023-06-14T05:52:35;19.80;99.90
26621;DHT22;14253;44.840;10.444;2023-06-14T05:55:03;19.90;99.90
26621;DHT22;14253;44.840;10.444;2023-06-14T05:57:29;20.10;99.90
26621;DHT22;14253;44.840;10.444;2023-06-14T05:59:55;20.20;99.90
26621;DHT22;14253;44.840;10.444;2023-06-14T06:02:21;20.30;99.90
26621;DHT22;14253;44.840;10.444;2023-06-14T06:04:47;20.40;99.90
26621;DHT22;14253;44.840;10.444;2023-06-14T06:07:13;20.50;99.90
26621;DHT22;14253;44.840;10.444;2023-06-14T06:09:39;20.60;99.90
26621;DHT22;14253;44.840;10.444;2023-06-14T06:12:07;20.80;99.90
26621;DHT22;14253;44.840;10.444;2023-06-14T06:14:33;20.90;99.90
26621;DHT22;14253;44.840;10.444;2023-06-14T06:16:59;21.00;99.90
26621;DHT22;14253;44.840;10.444;2023-06-14T06:19:25;21.20;99.90
26621;DHT22;14253;44.840;10.444;2023-06-14T06:21:51;21.20;99.90
26621;DHT22;14253;44.840;10.444;2023-06-14T06:24:17;21.30;99.90
26621;DHT22;14253;44.840;10.444;2023-06-14T06:26:43;21.40;99.90
26621;DHT22;14253;44.840;10.444;2023-06-14T06:29:09;21.50;99.90
26621;DHT22;14253;44.840;10.444;2023-06-14T06:31:35;21.60;99.90
26621;DHT22;14253;44.840;10.444;2023-06-14T06:34:00;21.60;99.90
26621;DHT22;14253;44.840;10.444;2023-06-14T06:36:26;21.70;99.90
26621;DHT22;14253;44.840;10.444;2023-06-14T06:38:52;21.80;99.90
26621;DHT22;14253;44.840;10.444;2023-06-14T06:41:18;21.90;99.90
26621;DHT22;14253;44.840;10.444;2023-06-14T06:43:44;21.90;99.90
26621;DHT22;14253;44.840;10.444;2023-06-14T06:46:10;21.80;99.90
26621;DHT22;14253;44.840;10.444;2023-06-14T06:48:36;21.90;99.90
26621;DHT22;14253;44.840;10.444;2023-06-14T06:51:02;21.90;99.90
26621;DHT22;14253;44.840;10.444;2023-06-14T06:53:29;22.10;99.90
26621;DHT22;14253;44.840;10.444;2023-06-14T06:55:56;22.20;99.90
26621;DHT22;14253;44.840;10.444;2023-06-14T06:58:22;22.30;99.90
26621;DHT22;14253;44.840;10.444;2023-06-14T07:00:48;22.40;99.90
26621;DHT22;14253;44.840;10.444;2023-06-14T07:03:14;22.50;99.90
26621;DHT22;14253;44.840;10.444;2023-06-14T07:05:40;22.50;99.90
26621;DHT22;14253;44.840;10.444;2023-06-14T07:08:06;22.40;99.90
26621;DHT22;14253;44.840;10.444;2023-06-14T07:10:32;22.50;99.90
26621;DHT22;14253;44.840;10.444;2023-06-14T07:12:58;22.50;99.90
26621;DHT22;14253;44.840;10.444;2023-06-14T07:15:23;22.50;99.90
26621;DHT22;14253;44.840;10.444;2023-06-14T07:17:49;22.70;99.90
26621;DHT22;14253;44.840;10.444;2023-06-14T07:20:17;22.80;99.90
26621;DHT22;14253;44.840;10.444;2023-06-14T07:22:43;22.90;99.90
26621;DHT22;14253;44.840;10.444;2023-06-14T07:25:10;23.10;99.90
26621;DHT22;14253;44.840;10.444;2023-06-14T07:27:43;23.30;99.90
26621;DHT22;14253;44.840;10.444;2023-06-14T07:30:09;23.40;99.90
26621;DHT22;14253;44.840;10.444;2023-06-14T07:32:36;23.70;99.90
26621;DHT22;14253;44.840;10.444;2023-06-14T07:35:02;23.50;99.90
26621;DHT22;14253;44.840;10.444;2023-06-14T07:37:28;23.50;99.90
26621;DHT22;14253;44.840;10.444;2023-06-14T07:39:54;23.50;99.90
26621;DHT22;14253;44.840;10.444;2023-06-14T07:42:20;23.50;99.90
26621;DHT22;14253;44.840;10.444;2023-06-14T07:44:46;23.30;99.90
26621;DHT22;14253;44.840;10.444;2023-06-14T07:47:12;23.20;99.90
26621;DHT22;14253;44.840;10.444;2023-06-14T07:49:38;23.10;99.90
26621;DHT22;14253;44.840;10.444;2023-06-14T07:52:04;23.00;99.90
26621;DHT22;14253;44.840;10.444;2023-06-14T07:54:30;22.80;99.90
26621;DHT22;14253;44.840;10.444;2023-06-14T07:56:58;22.70;99.90
26621;DHT22;14253;44.840;10.444;2023-06-14T07:59:26;22.60;99.90
26621;DHT22;14253;44.840;10.444;2023-06-14T08:01:52;22.50;99.90
26621;DHT22;14253;44.840;10.444;2023-06-14T08:04:18;22.40;99.90
26621;DHT22;14253;44.840;10.444;2023-06-14T08:06:44;22.50;99.90
26621;DHT22;14253;44.840;10.444;2023-06-14T08:09:12;22.50;99.90
26621;DHT22;14253;44.840;10.444;2023-06-14T08:11:38;22.50;99.90
26621;DHT22;14253;44.840;10.444;2023-06-14T08:14:04;22.50;99.90
26621;DHT22;14253;44.840;10.444;2023-06-14T08:16:30;22.50;99.90
26621;DHT22;14253;44.840;10.444;2023-06-14T08:18:56;22.60;99.90
26621;DHT22;14253;44.840;10.444;2023-06-14T08:21:22;22.60;99.90
26621;DHT22;14253;44.840;10.444;2023-06-14T08:23:48;22.60;99.90
26621;DHT22;14253;44.840;10.444;2023-06-14T08:26:14;22.60;99.90
26621;DHT22;14253;44.840;10.444;2023-06-14T08:28:40;22.70;99.90
26621;DHT22;14253;44.840;10.444;2023-06-14T08:31:06;22.70;99.90
26621;DHT22;14253;44.840;10.444;2023-06-14T08:33:32;22.60;99.90
26621;DHT22;14253;44.840;10.444;2023-06-14T08:35:58;22.90;99.90
26621;DHT22;14253;44.840;10.444;2023-06-14T08:38:24;23.00;99.90
26621;DHT22;14253;44.840;10.444;2023-06-14T08:40:51;22.90;99.90
26621;DHT22;14253;44.840;10.444;2023-06-14T08:43:18;23.00;99.90
26621;DHT22;14253;44.840;10.444;2023-06-14T08:45:46;23.00;99.90
26621;DHT22;14253;44.840;10.444;2023-06-14T08:48:12;23.00;99.90
26621;DHT22;14253;44.840;10.444;2023-06-14T08:50:43;22.90;99.90
26621;DHT22;14253;44.840;10.444;2023-06-14T08:53:13;23.10;99.90
26621;DHT22;14253;44.840;10.444;2023-06-14T08:55:45;23.10;99.90
26621;DHT22;14253;44.840;10.444;2023-06-14T08:58:13;23.10;99.90
26621;DHT22;14253;44.840;10.444;2023-06-14T09:00:40;23.30;99.90
26621;DHT22;14253;44.840;10.444;2023-06-14T09:03:08;23.70;99.90
26621;DHT22;14253;44.840;10.444;2023-06-14T09:05:39;24.80;99.90
26621;DHT22;14253;44.840;10.444;2023-06-14T09:08:05;25.40;99.90
26621;DHT22;14253;44.840;10.444;2023-06-14T09:10:31;25.90;99.90
26621;DHT22;14253;44.840;10.444;2023-06-14T09:13:03;25.70;99.90
26621;DHT22;14253;44.840;10.444;2023-06-14T09:15:30;26.30;99.90
26621;DHT22;14253;44.840;10.444;2023-06-14T09:17:57;26.60;99.90
26621;DHT22;14253;44.840;10.444;2023-06-14T09:20:24;26.50;99.90
26621;DHT22;14253;44.840;10.444;2023-06-14T09:22:50;26.60;99.90
26621;DHT22;14253;44.840;10.444;2023-06-14T09:25:16;26.60;99.90
26621;DHT22;14253;44.840;10.444;2023-06-14T09:27:43;26.20;99.90
26621;DHT22;14253;44.840;10.444;2023-06-14T09:30:11;26.10;99.90
26621;DHT22;14253;44.840;10.444;2023-06-14T09:32:38;26.20;99.90
26621;DHT22;14253;44.840;10.444;2023-06-14T09:35:08;26.40;99.90
26621;DHT22;14253;44.840;10.444;2023-06-14T09:37:34;26.60;99.90
26621;DHT22;14253;44.840;10.444;2023-06-14T09:40:01;27.10;99.90
26621;DHT22;14253;44.840;10.444;2023-06-14T09:42:29;27.40;99.90
26621;DHT22;14253;44.840;10.444;2023-06-14T09:44:56;27.10;99.90
26621;DHT22;14253;44.840;10.444;2023-06-14T09:47:24;26.70;99.90
26621;DHT22;14253;44.840;10.444;2023-06-14T09:49:51;26.40;99.90
26621;DHT22;14253;44.840;10.444;2023-06-14T09:52:19;26.20;99.90
26621;DHT22;14253;44.840;10.444;2023-06-14T09:54:46;25.70;99.90
26621;DHT22;14253;44.840;10.444;2023-06-14T09:57:18;25.50;99.90
26621;DHT22;14253;44.840;10.444;2023-06-14T09:59:47;25.50;99.90
26621;DHT22;14253;44.840;10.444;2023-06-14T10:02:25;25.50;99.90
26621;DHT22;14253;44.840;10.444;2023-06-14T10:05:11;25.40;99.90
26621;DHT22;14253;44.840;10.444;2023-06-14T10:10:24;25.50;99.90
26621;DHT22;14253;44.840;10.444;2023-06-14T10:12:51;25.20;99.90
26621;DHT22;14253;44.840;10.444;2023-06-14T10:15:23;24.90;99.90
26621;DHT22;14253;44.840;10.444;2023-06-14T10:17:58;24.90;99.90
26621;DHT22;14253;44.840;10.444;2023-06-14T10:20:37;24.70;99.90
26621;DHT22;14253;44.840;10.444;2023-06-14T10:23:18;24.50;99.90
26621;DHT22;14253;44.840;10.444;2023-06-14T10:25:45;24.50;99.90
26621;DHT22;14253;44.840;10.444;2023-06-14T10:31:14;24.50;99.90
26621;DHT22;14253;44.840;10.444;2023-06-14T10:39:20;24.90;99.90
26621;DHT22;14253;44.840;10.444;2023-06-14T10:41:54;25.10;99.90
26621;DHT22;14253;44.840;10.444;2023-06-14T10:46:52;25.30;99.90
26621;DHT22;14253;44.840;10.444;2023-06-14T10:49:19;25.20;99.90
26621;DHT22;14253;44.840;10.444;2023-06-14T10:51:49;25.40;99.90
26621;DHT22;14253;44.840;10.444;2023-06-14T10:54:16;25.60;99.90
26621;DHT22;14253;44.840;10.444;2023-06-14T10:56:47;26.10;99.90
26621;DHT22;14253;44.840;10.444;2023-06-14T10:59:14;26.60;99.90
26621;DHT22;14253;44.840;10.444;2023-06-14T11:04:49;27.50;99.90
26621;DHT22;14253;44.840;10.444;2023-06-14T11:10:37;27.70;99.90
26621;DHT22;14253;44.840;10.444;2023-06-14T11:13:03;27.80;99.90
26621;DHT22;14253;44.840;10.444;2023-06-14T11:15:33;27.90;99.90
26621;DHT22;14253;44.840;10.444;2023-06-14T11:18:08;27.30;99.90
26621;DHT22;14253;44.840;10.444;2023-06-14T11:20:37;27.30;99.90
26621;DHT22;14253;44.840;10.444;2023-06-14T11:23:04;27.20;99.90
26621;DHT22;14253;44.840;10.444;2023-06-14T11:25:30;27.20;99.90
26621;DHT22;14253;44.840;10.444;2023-06-14T11:27:57;26.80;99.90
26621;DHT22;14253;44.840;10.444;2023-06-14T11:30:24;26.30;99.90
26621;DHT22;14253;44.840;10.444;2023-06-14T11:32:52;26.20;99.90
26621;DHT22;14253;44.840;10.444;2023-06-14T11:35:21;26.00;99.90
26621;DHT22;14253;44.840;10.444;2023-06-14T11:37:52;25.80;99.90
26621;DHT22;14253;44.840;10.444;2023-06-14T11:40:18;25.90;99.90
26621;DHT22;14253;44.840;10.444;2023-06-14T11:42:44;25.80;99.90
26621;DHT22;14253;44.840;10.444;2023-06-14T11:45:11;25.70;99.90
26621;DHT22;14253;44.840;10.444;2023-06-14T11:47:39;25.70;99.90
26621;DHT22;14253;44.840;10.444;2023-06-14T11:50:07;25.40;99.90
26621;DHT22;14253;44.840;10.444;2023-06-14T11:52:37;25.30;99.90
26621;DHT22;14253;44.840;10.444;2023-06-14T11:55:03;25.30;99.90
26621;DHT22;14253;44.840;10.444;2023-06-14T11:57:36;25.40;99.90
26621;DHT22;14253;44.840;10.444;2023-06-14T12:00:06;25.50;99.90
26621;DHT22;14253;44.840;10.444;2023-06-14T12:02:41;25.80;99.90
26621;DHT22;14253;44.840;10.444;2023-06-14T12:05:08;25.70;99.90
26621;DHT22;14253;44.840;10.444;2023-06-14T12:07:39;26.00;99.90
26621;DHT22;14253;44.840;10.444;2023-06-14T12:10:08;26.10;99.90
26621;DHT22;14253;44.840;10.444;2023-06-14T12:12:39;26.10;99.90
26621;DHT22;14253;44.840;10.444;2023-06-14T12:15:10;25.90;99.90
26621;DHT22;14253;44.840;10.444;2023-06-14T12:17:39;26.10;99.90
26621;DHT22;14253;44.840;10.444;2023-06-14T12:20:10;26.10;99.90
26621;DHT22;14253;44.840;10.444;2023-06-14T12:22:37;26.30;99.90
26621;DHT22;14253;44.840;10.444;2023-06-14T12:25:04;26.50;99.90
26621;DHT22;14253;44.840;10.444;2023-06-14T12:27:31;26.60;99.90
26621;DHT22;14253;44.840;10.444;2023-06-14T12:30:02;26.60;99.90
26621;DHT22;14253;44.840;10.444;2023-06-14T12:32:28;26.60;99.90
26621;DHT22;14253;44.840;10.444;2023-06-14T12:34:54;26.50;99.90
26621;DHT22;14253;44.840;10.444;2023-06-14T12:37:20;26.30;99.90
26621;DHT22;14253;44.840;10.444;2023-06-14T12:39:46;26.50;99.90
26621;DHT22;14253;44.840;10.444;2023-06-14T12:42:12;26.50;99.90
26621;DHT22;14253;44.840;10.444;2023-06-14T12:44:40;26.60;99.90
26621;DHT22;14253;44.840;10.444;2023-06-14T12:47:07;26.70;99.90
26621;DHT22;14253;44.840;10.444;2023-06-14T12:49:33;26.60;99.90
26621;DHT22;14253;44.840;10.444;2023-06-14T12:51:59;26.60;99.90
26621;DHT22;14253;44.840;10.444;2023-06-14T12:54:25;26.40;99.90
26621;DHT22;14253;44.840;10.444;2023-06-14T12:56:51;26.60;99.90
26621;DHT22;14253;44.840;10.444;2023-06-14T12:59:18;26.50;99.90
26621;DHT22;14253;44.840;10.444;2023-06-14T13:01:44;26.50;99.90
26621;DHT22;14253;44.840;10.444;2023-06-14T13:04:10;26.50;99.90
26621;DHT22;14253;44.840;10.444;2023-06-14T13:06:37;26.60;99.90
26621;DHT22;14253;44.840;10.444;2023-06-14T13:09:03;26.40;99.90
26621;DHT22;14253;44.840;10.444;2023-06-14T13:11:29;26.10;99.90
26621;DHT22;14253;44.840;10.444;2023-06-14T13:13:56;26.20;99.90
26621;DHT22;14253;44.840;10.444;2023-06-14T13:16:22;26.10;99.90
26621;DHT22;14253;44.840;10.444;2023-06-14T13:18:48;26.10;99.90
26621;DHT22;14253;44.840;10.444;2023-06-14T13:21:14;26.20;99.90
26621;DHT22;14253;44.840;10.444;2023-06-14T13:23:40;26.40;99.90
26621;DHT22;14253;44.840;10.444;2023-06-14T13:26:05;26.30;99.90
26621;DHT22;14253;44.840;10.444;2023-06-14T13:28:32;26.30;99.90
26621;DHT22;14253;44.840;10.444;2023-06-14T13:30:58;26.60;99.90
26621;DHT22;14253;44.840;10.444;2023-06-14T13:33:24;26.40;99.90
26621;DHT22;14253;44.840;10.444;2023-06-14T13:35:50;26.50;99.90
26621;DHT22;14253;44.840;10.444;2023-06-14T13:38:18;26.50;99.90
26621;DHT22;14253;44.840;10.444;2023-06-14T13:40:44;26.30;99.90
26621;DHT22;14253;44.840;10.444;2023-06-14T13:43:10;26.20;99.90
26621;DHT22;14253;44.840;10.444;2023-06-14T13:45:36;26.10;99.90
26621;DHT22;14253;44.840;10.444;2023-06-14T13:48:02;26.20;99.90
26621;DHT22;14253;44.840;10.444;2023-06-14T13:50:28;26.40;99.90
26621;DHT22;14253;44.840;10.444;2023-06-14T13:52:54;26.30;99.90
26621;DHT22;14253;44.840;10.444;2023-06-14T13:55:20;26.40;99.90
26621;DHT22;14253;44.840;10.444;2023-06-14T13:57:46;26.50;99.90
26621;DHT22;14253;44.840;10.444;2023-06-14T14:00:12;26.60;99.90
26621;DHT22;14253;44.840;10.444;2023-06-14T14:02:38;26.50;99.90
26621;DHT22;14253;44.840;10.444;2023-06-14T14:05:05;26.50;99.90
26621;DHT22;14253;44.840;10.444;2023-06-14T14:07:32;26.60;99.90
26621;DHT22;14253;44.840;10.444;2023-06-14T14:09:58;26.90;99.90
26621;DHT22;14253;44.840;10.444;2023-06-14T14:12:24;27.20;99.90
26621;DHT22;14253;44.840;10.444;2023-06-14T14:14:50;27.50;99.90
26621;DHT22;14253;44.840;10.444;2023-06-14T14:17:17;27.70;99.90
26621;DHT22;14253;44.840;10.444;2023-06-14T14:19:43;28.00;99.90
26621;DHT22;14253;44.840;10.444;2023-06-14T14:22:09;28.10;99.90
26621;DHT22;14253;44.840;10.444;2023-06-14T14:24:35;28.40;99.90
26621;DHT22;14253;44.840;10.444;2023-06-14T14:27:01;28.60;99.90
26621;DHT22;14253;44.840;10.444;2023-06-14T14:29:28;28.60;99.90
26621;DHT22;14253;44.840;10.444;2023-06-14T14:31:57;28.50;99.90
26621;DHT22;14253;44.840;10.444;2023-06-14T14:34:24;28.40;99.90
26621;DHT22;14253;44.840;10.444;2023-06-14T14:36:50;28.50;99.90
26621;DHT22;14253;44.840;10.444;2023-06-14T14:39:16;28.60;99.90
26621;DHT22;14253;44.840;10.444;2023-06-14T14:41:42;28.50;99.90
26621;DHT22;14253;44.840;10.444;2023-06-14T14:44:08;28.20;99.90
26621;DHT22;14253;44.840;10.444;2023-06-14T14:46:34;28.20;99.90
26621;DHT22;14253;44.840;10.444;2023-06-14T14:49:02;28.10;99.90
26621;DHT22;14253;44.840;10.444;2023-06-14T14:51:28;28.10;99.90
26621;DHT22;14253;44.840;10.444;2023-06-14T14:53:55;27.90;99.90
26621;DHT22;14253;44.840;10.444;2023-06-14T14:56:21;28.10;99.90
26621;DHT22;14253;44.840;10.444;2023-06-14T14:58:47;28.10;99.90
26621;DHT22;14253;44.840;10.444;2023-06-14T15:01:14;28.00;99.90
26621;DHT22;14253;44.840;10.444;2023-06-14T15:03:40;28.10;99.90
26621;DHT22;14253;44.840;10.444;2023-06-14T15:06:06;28.10;99.90
26621;DHT22;14253;44.840;10.444;2023-06-14T15:08:32;28.20;99.90
26621;DHT22;14253;44.840;10.444;2023-06-14T15:10:58;28.10;99.90
26621;DHT22;14253;44.840;10.444;2023-06-14T15:13:24;28.20;99.90
26621;DHT22;14253;44.840;10.444;2023-06-14T15:15:50;28.10;99.90
26621;DHT22;14253;44.840;10.444;2023-06-14T15:18:16;28.20;99.90
26621;DHT22;14253;44.840;10.444;2023-06-14T15:20:42;28.50;99.90
26621;DHT22;14253;44.840;10.444;2023-06-14T15:23:08;28.60;99.90
26621;DHT22;14253;44.840;10.444;2023-06-14T15:25:35;28.60;99.90
26621;DHT22;14253;44.840;10.444;2023-06-14T15:28:01;28.80;99.90
26621;DHT22;14253;44.840;10.444;2023-06-14T15:30:28;28.80;99.90
26621;DHT22;14253;44.840;10.444;2023-06-14T15:32:54;28.90;99.90
26621;DHT22;14253;44.840;10.444;2023-06-14T15:35:20;28.90;99.90
26621;DHT22;14253;44.840;10.444;2023-06-14T15:37:47;28.40;99.90
26621;DHT22;14253;44.840;10.444;2023-06-14T15:40:19;28.60;99.90
26621;DHT22;14253;44.840;10.444;2023-06-14T15:42:45;28.80;99.90
26621;DHT22;14253;44.840;10.444;2023-06-14T15:45:11;28.90;99.90
26621;DHT22;14253;44.840;10.444;2023-06-14T15:47:39;29.00;99.90
26621;DHT22;14253;44.840;10.444;2023-06-14T15:50:06;29.00;99.90
26621;DHT22;14253;44.840;10.444;2023-06-14T15:52:34;29.20;99.90